createdAt,value
2023-05-01T00:01:41.821Z,100443.69
2023-05-01T00:04:08.590Z,100434.44
2023-05-01T00:06:35.161Z,100442.59
2023-05-01T00:09:01.759Z,100429.47
2023-05-01T00:11:28.216Z,100426.25
2023-05-01T00:13:54.643Z,100430.28
2023-05-01T00:16:21.137Z,100420.41
2023-05-01T00:18:47.606Z,100421.88
2023-05-01T00:21:13.994Z,100429.13
2023-05-01T00:23:40.484Z,100417.50
2023-05-01T00:26:07.548Z,100418.28
2023-05-01T00:28:34.072Z,100418.28
2023-05-01T00:31:00.472Z,100413.78
2023-05-01T00:33:26.906Z,100410.84
2023-05-01T00:35:53.356Z,100412.00
2023-05-01T00:38:19.809Z,100410.50
2023-05-01T00:40:46.625Z,100407.63
2023-05-01T00:43:13.434Z,100405.22
2023-05-01T00:45:40.058Z,100402.94
2023-05-01T00:48:06.484Z,100397.78
2023-05-01T00:50:33.255Z,100403.06
2023-05-01T00:52:59.831Z,100400.84
2023-05-01T00:55:26.452Z,100407.63
2023-05-01T00:57:52.955Z,100401.50
2023-05-01T01:00:22.305Z,100402.47
2023-05-01T01:02:49.002Z,100396.31
2023-05-01T01:05:16.478Z,100395.69
2023-05-01T01:07:51.027Z,100402.47
2023-05-01T01:10:36.974Z,100400.34
2023-05-01T01:13:22.211Z,100391.59
2023-05-01T01:16:07.367Z,100392.09
2023-05-01T01:18:40.190Z,100385.91
2023-05-01T01:21:06.929Z,100360.50
2023-05-01T01:23:52.207Z,100379.91
2023-05-01T01:26:33.090Z,100384.28
2023-05-01T01:29:18.442Z,100383.00
2023-05-01T01:31:53.637Z,100371.66
2023-05-01T01:34:21.006Z,100379.13
2023-05-01T01:36:49.459Z,100374.44
2023-05-01T01:39:27.208Z,100375.09
2023-05-01T01:41:53.733Z,100370.59
2023-05-01T01:44:33.157Z,100369.25
2023-05-01T01:46:59.613Z,100375.91
2023-05-01T01:49:26.464Z,100370.38
2023-05-01T01:51:53.348Z,100372.63
2023-05-01T01:54:21.174Z,100376.41
2023-05-01T01:56:47.620Z,100371.88
2023-05-01T01:59:14.056Z,100374.63
2023-05-01T02:01:41.190Z,100375.25
2023-05-01T02:04:07.825Z,100364.59
2023-05-01T02:06:35.249Z,100371.69
2023-05-01T02:09:02.750Z,100368.28
2023-05-01T02:11:29.189Z,100364.38
2023-05-01T02:13:55.701Z,100360.03
2023-05-01T02:16:22.522Z,100362.00
2023-05-01T02:18:49.529Z,100361.47
2023-05-01T02:21:16.183Z,100370.22
2023-05-01T02:23:42.655Z,100356.13
2023-05-01T02:26:09.056Z,100363.06
2023-05-01T02:28:35.461Z,100365.69
2023-05-01T02:31:02.010Z,100361.16
2023-05-01T02:33:28.474Z,100363.56
2023-05-01T02:35:54.897Z,100358.88
2023-05-01T02:38:21.662Z,100354.34
2023-05-01T02:40:50.365Z,100347.06
2023-05-01T02:43:18.344Z,100347.72
2023-05-01T02:45:44.923Z,100345.13
2023-05-01T02:48:13.326Z,100344.16
2023-05-01T02:50:43.813Z,100329.75
2023-05-01T02:53:10.392Z,100336.41
2023-05-01T02:55:45.140Z,100329.13
2023-05-01T02:58:15.276Z,100325.22
2023-05-01T03:00:42.213Z,100323.59
2023-05-01T03:03:08.630Z,100321.81
2023-05-01T03:05:35.048Z,100330.22
2023-05-01T03:08:01.503Z,100321.47
2023-05-01T03:10:28.017Z,100316.13
2023-05-01T03:12:54.443Z,100316.47
2023-05-01T03:15:20.861Z,100319.84
2023-05-01T03:17:47.283Z,100320.84
2023-05-01T03:20:13.753Z,100314.19
2023-05-01T03:22:40.667Z,100312.25
2023-05-01T03:25:07.277Z,100315.50
2023-05-01T03:27:33.856Z,100307.56
2023-05-01T03:30:00.243Z,100310.31
2023-05-01T03:32:29.382Z,100310.81
2023-05-01T03:34:56.510Z,100312.09
2023-05-01T03:37:23.077Z,100313.88
2023-05-01T03:39:49.740Z,100311.13
2023-05-01T03:42:34.776Z,100305.63
2023-05-01T03:45:09.074Z,100307.44
2023-05-01T03:47:35.630Z,100309.56
2023-05-01T03:50:02.395Z,100310.69
2023-05-01T03:52:29.710Z,100300.97
2023-05-01T03:54:57.184Z,100301.47
2023-05-01T03:57:31.986Z,100298.88
2023-05-01T03:59:59.468Z,100300.00
2023-05-01T04:02:27.549Z,100299.66
2023-05-01T04:04:54.127Z,100304.34
2023-05-01T04:07:20.772Z,100308.72
2023-05-01T04:09:49.400Z,100299.81
2023-05-01T04:12:15.890Z,100299.50
2023-05-01T04:14:43.328Z,100301.16
2023-05-01T04:17:10.669Z,100295.97
2023-05-01T04:19:37.880Z,100301.97
2023-05-01T04:22:05.532Z,100300.00
2023-05-01T04:24:33.607Z,100293.38
2023-05-01T04:27:00.051Z,100294.16
2023-05-01T04:29:26.475Z,100293.34
2023-05-01T04:31:53.101Z,100292.53
2023-05-01T04:34:19.906Z,100296.13
2023-05-01T04:36:46.433Z,100292.41
2023-05-01T04:39:12.954Z,100296.78
2023-05-01T04:41:39.391Z,100294.34
2023-05-01T04:44:05.908Z,100293.06
2023-05-01T04:46:33.421Z,100296.28
2023-05-01T04:49:00.489Z,100297.41
2023-05-01T04:51:27.968Z,100300.34
2023-05-01T04:53:55.478Z,100300.34
2023-05-01T04:56:25.595Z,100301.47
2023-05-01T04:58:56.065Z,100295.63
2023-05-01T05:01:25.323Z,100303.25
2023-05-01T05:03:52.511Z,100301.78
2023-05-01T05:06:19.323Z,100294.97
2023-05-01T05:08:45.927Z,100308.72
2023-05-01T05:11:12.531Z,100301.28
2023-05-01T05:13:45.358Z,100299.03
2023-05-01T05:16:12.901Z,100307.75
2023-05-01T05:18:39.576Z,100313.13
2023-05-01T05:21:06.304Z,100309.22
2023-05-01T05:23:32.753Z,100304.22
2023-05-01T05:26:01.172Z,100313.13
2023-05-01T05:28:28.146Z,100307.44
2023-05-01T05:30:55.525Z,100317.97
2023-05-01T05:33:22.797Z,100319.09
2023-05-01T05:35:49.694Z,100315.22
2023-05-01T05:38:16.219Z,100315.69
2023-05-01T05:40:45.322Z,100326.22
2023-05-01T05:43:11.997Z,100320.88
2023-05-01T05:45:38.934Z,100321.38
2023-05-01T05:48:06.041Z,100316.19
2023-05-01T05:50:35.727Z,100314.13
2023-05-01T05:53:02.495Z,100315.75
2023-05-01T05:55:29.073Z,100321.59
2023-05-01T05:58:01.530Z,100313.47
2023-05-01T06:00:29.027Z,100313.47
2023-05-01T06:02:56.996Z,100310.56
2023-05-01T06:05:26.813Z,100319.47
2023-05-01T06:07:53.383Z,100312.84
2023-05-01T06:10:21.067Z,100318.34
2023-05-01T06:12:52.342Z,100317.53
2023-05-01T06:15:24.711Z,100314.44
2023-05-01T06:17:53.573Z,100317.03
2023-05-01T06:20:20.011Z,100313.63
2023-05-01T06:22:49.207Z,100304.25
2023-05-01T06:25:21.737Z,100311.97
2023-05-01T06:27:49.089Z,100305.34
2023-05-01T06:30:16.224Z,100308.91
2023-05-01T06:32:43.693Z,100309.75
2023-05-01T06:35:11.419Z,100308.94
2023-05-01T06:37:38.449Z,100307.66
2023-05-01T06:40:07.648Z,100315.75
2023-05-01T06:42:34.125Z,100318.19
2023-05-01T06:45:02.086Z,100326.09
2023-05-01T06:47:28.689Z,100321.91
2023-05-01T06:49:55.324Z,100324.28
2023-05-01T06:52:21.948Z,100328.16
2023-05-01T06:54:48.358Z,100321.72
2023-05-01T06:57:14.806Z,100324.22
2023-05-01T06:59:41.278Z,100330.81
2023-05-01T07:02:07.903Z,100323.50
2023-05-01T07:04:34.522Z,100323.84
2023-05-01T07:07:02.113Z,100321.34
2023-05-01T07:09:28.601Z,100326.97
2023-05-01T07:11:56.980Z,100324.66
2023-05-01T07:14:23.848Z,100329.97
2023-05-01T07:16:50.305Z,100337.47
2023-05-01T07:19:17.082Z,100342.81
2023-05-01T07:21:43.568Z,100332.34
2023-05-01T07:24:10.067Z,100325.47
2023-05-01T07:26:37.587Z,100329.72
2023-05-01T07:29:04.369Z,100327.28
2023-05-01T07:31:30.910Z,100315.50
2023-05-01T07:33:57.409Z,100318.72
2023-05-01T07:36:24.048Z,100315.34
2023-05-01T07:38:50.543Z,100319.06
2023-05-01T07:41:17.111Z,100314.25
2023-05-01T07:43:43.681Z,100317.78
2023-05-01T07:46:10.217Z,100310.06
2023-05-01T07:48:38.958Z,100320.88
2023-05-01T07:51:05.671Z,100313.63
2023-05-01T07:53:33.130Z,100313.63
2023-05-01T07:56:06.992Z,100314.75
2023-05-01T07:58:33.428Z,100314.91
2023-05-01T08:01:00.305Z,100311.03
2023-05-01T08:03:28.170Z,100305.69
2023-05-01T08:05:54.979Z,100312.72
2023-05-01T08:08:21.485Z,100319.69
2023-05-01T08:10:48.128Z,100319.22
2023-05-01T08:13:14.697Z,100313.88
2023-05-01T08:15:42.900Z,100317.78
2023-05-01T08:18:09.602Z,100321.16
2023-05-01T08:20:36.363Z,100323.28
2023-05-01T08:23:02.893Z,100318.91
2023-05-01T08:25:29.853Z,100330.25
2023-05-01T08:27:56.379Z,100324.13
2023-05-01T08:30:22.882Z,100322.00
2023-05-01T08:32:49.544Z,100320.06
2023-05-01T08:35:16.112Z,100323.75
2023-05-01T08:37:42.549Z,100322.31
2023-05-01T08:40:09.289Z,100323.75
2023-05-01T08:42:36.730Z,100316.47
2023-05-01T08:45:04.448Z,100320.03
2023-05-01T08:47:30.956Z,100312.88
2023-05-01T08:49:57.597Z,100312.88
2023-05-01T08:52:24.490Z,100311.31
2023-05-01T08:54:50.988Z,100323.13
2023-05-01T08:57:17.562Z,100316.63
2023-05-01T08:59:44.070Z,100314.88
2023-05-01T09:02:10.830Z,100313.88
2023-05-01T09:04:40.533Z,100320.53
2023-05-01T09:07:07.221Z,100316.00
2023-05-01T09:09:33.649Z,100302.41
2023-05-01T09:12:01.188Z,100305.63
2023-05-01T09:14:28.473Z,100300.47
2023-05-01T09:16:55.772Z,100299.69
2023-05-01T09:19:22.359Z,100299.00
2023-05-01T09:21:48.843Z,100294.63
2023-05-01T09:24:15.300Z,100298.66
2023-05-01T09:26:42.019Z,100295.91
2023-05-01T09:29:10.206Z,100299.00
2023-05-01T09:31:36.714Z,100306.09
2023-05-01T09:34:03.746Z,100305.94
2023-05-01T09:36:34.096Z,100307.91
2023-05-01T09:39:00.826Z,100307.09
2023-05-01T09:41:27.532Z,100307.22
2023-05-01T09:43:54.763Z,100309.19
2023-05-01T09:46:22.952Z,100305.94
2023-05-01T09:48:55.009Z,100306.88
2023-05-01T09:51:22.204Z,100309.41
2023-05-01T09:53:49.195Z,100303.75
2023-05-01T09:56:15.702Z,100303.91
2023-05-01T09:58:42.187Z,100306.50
2023-05-01T10:01:08.812Z,100311.19
2023-05-01T10:03:35.544Z,100311.28
2023-05-01T10:06:03.939Z,100302.19
2023-05-01T10:08:48.999Z,100313.19
2023-05-01T10:11:15.571Z,100303.19
2023-05-01T10:13:42.095Z,100306.25
2023-05-01T10:16:10.465Z,100308.53
2023-05-01T10:18:37.886Z,100311.28
2023-05-01T10:21:04.731Z,100304.34
2023-05-01T10:23:31.175Z,100305.78
2023-05-01T10:25:58.613Z,100313.22
2023-05-01T10:28:28.777Z,100297.22
2023-05-01T10:30:55.659Z,100311.28
2023-05-01T10:33:22.300Z,100300.28
2023-05-01T10:35:50.135Z,100307.38
2023-05-01T10:38:21.997Z,100306.59
2023-05-01T10:40:51.779Z,100304.34
2023-05-01T10:43:26.112Z,100298.84
2023-05-01T10:45:52.721Z,100305.94
2023-05-01T10:48:42.422Z,100294.81
2023-05-01T10:51:20.187Z,100301.41
2023-05-01T10:53:47.340Z,100297.56
2023-05-01T10:56:27.031Z,100294.97
2023-05-01T10:58:53.453Z,100289.94
2023-05-01T11:01:29.183Z,100288.50
2023-05-01T11:03:56.086Z,100284.78
2023-05-01T11:06:23.370Z,100289.94
2023-05-01T11:08:49.861Z,100284.59
2023-05-01T11:11:19.371Z,100292.06
2023-05-01T11:13:58.310Z,100289.00
2023-05-01T11:16:35.260Z,100287.22
2023-05-01T11:19:01.722Z,100297.25
2023-05-01T11:21:33.452Z,100297.75
2023-05-01T11:24:00.068Z,100290.16
2023-05-01T11:26:26.566Z,100292.22
2023-05-01T11:28:54.011Z,100294.50
2023-05-01T11:31:20.738Z,100294.50
2023-05-01T11:33:47.193Z,100283.00
2023-05-01T11:36:14.122Z,100291.75
2023-05-01T11:38:52.583Z,100286.06
2023-05-01T11:41:26.072Z,100291.25
2023-05-01T11:43:58.657Z,100286.44
2023-05-01T11:46:27.446Z,100280.13
2023-05-01T11:48:54.386Z,100275.25
2023-05-01T11:51:20.891Z,100275.75
2023-05-01T11:54:03.657Z,100277.50
2023-05-01T11:56:30.362Z,100269.25
2023-05-01T11:58:57.493Z,100276.22
2023-05-01T12:01:33.531Z,100275.25
2023-05-01T12:04:00.105Z,100268.59
2023-05-01T12:06:36.577Z,100263.28
2023-05-01T12:09:03.053Z,100271.22
2023-05-01T12:11:29.508Z,100263.78
2023-05-01T12:13:55.931Z,100263.44
2023-05-01T12:16:22.434Z,100269.91
2023-05-01T12:18:48.943Z,100260.97
2023-05-01T12:21:15.832Z,100263.88
2023-05-01T12:23:42.301Z,100264.88
2023-05-01T12:26:28.993Z,100275.88
2023-05-01T12:29:02.419Z,100269.25
2023-05-01T12:31:29.212Z,100277.50
2023-05-01T12:34:06.065Z,100270.88
2023-05-01T12:36:33.311Z,100274.59
2023-05-01T12:39:01.329Z,100268.78
2023-05-01T12:41:34.767Z,100268.78
2023-05-01T12:44:01.171Z,100271.19
2023-05-01T12:46:27.665Z,100267.13
2023-05-01T12:48:54.727Z,100266.16
2023-05-01T12:51:21.183Z,100266.31
2023-05-01T12:53:47.951Z,100263.56
2023-05-01T12:56:24.421Z,100256.13
2023-05-01T12:58:52.448Z,100263.91
2023-05-01T13:01:26.408Z,100260.81
2023-05-01T13:03:53.113Z,100256.78
2023-05-01T13:06:19.679Z,100257.25
2023-05-01T13:08:46.181Z,100257.91
2023-05-01T13:11:13.384Z,100251.13
2023-05-01T13:13:40.278Z,100255.16
2023-05-01T13:16:06.886Z,100245.94
2023-05-01T13:18:33.514Z,100250.94
2023-05-01T13:21:06.753Z,100252.59
2023-05-01T13:23:33.194Z,100251.28
2023-05-01T13:26:02.508Z,100245.44
2023-05-01T13:28:32.187Z,100245.63
2023-05-01T13:30:58.581Z,100243.84
2023-05-01T13:33:25.128Z,100231.22
2023-05-01T13:35:51.523Z,100238.81
2023-05-01T13:38:23.256Z,100237.03
2023-05-01T13:40:50.067Z,100234.44
2023-05-01T13:43:17.047Z,100232.03
2023-05-01T13:45:43.583Z,100237.69
2023-05-01T13:48:10.799Z,100227.94
2023-05-01T13:50:37.270Z,100228.44
2023-05-01T13:53:05.734Z,100224.59
2023-05-01T13:55:32.560Z,100221.78
2023-05-01T13:57:58.960Z,100223.09
2023-05-01T14:00:25.792Z,100222.44
2023-05-01T14:02:53.982Z,100216.28
2023-05-01T14:05:23.488Z,100210.09
2023-05-01T14:07:56.921Z,100210.41
2023-05-01T14:10:23.797Z,100199.69
2023-05-01T14:12:50.944Z,100198.19
2023-05-01T14:15:17.443Z,100204.38
2023-05-01T14:17:44.119Z,100194.63
2023-05-01T14:20:10.695Z,100197.69
2023-05-01T14:22:40.166Z,100197.69
2023-05-01T14:25:07.142Z,100195.56
2023-05-01T14:27:34.137Z,100188.63
2023-05-01T14:30:01.190Z,100181.47
2023-05-01T14:32:29.897Z,100188.28
2023-05-01T14:34:57.151Z,100188.63
2023-05-01T14:37:26.761Z,100194.41
2023-05-01T14:39:53.164Z,100193.47
2023-05-01T14:42:19.751Z,100195.41
2023-05-01T14:44:46.216Z,100197.03
2023-05-01T14:47:12.739Z,100197.03
2023-05-01T14:49:39.684Z,100200.59
2023-05-01T14:52:07.306Z,100197.69
2023-05-01T14:54:36.095Z,100205.59
2023-05-01T14:57:06.254Z,100207.69
2023-05-01T14:59:32.758Z,100213.06
2023-05-01T15:01:59.279Z,100218.59
2023-05-01T15:04:25.887Z,100220.53
2023-05-01T15:06:53.245Z,100213.69
2023-05-01T15:09:19.756Z,100211.59
2023-05-01T15:11:46.308Z,100210.66
2023-05-01T15:14:12.767Z,100209.34
2023-05-01T15:16:39.292Z,100210.81
2023-05-01T15:19:05.831Z,100203.81
2023-05-01T15:21:33.302Z,100199.44
2023-05-01T15:23:59.874Z,100205.16
2023-05-01T15:26:26.429Z,100210.47
2023-05-01T15:28:52.996Z,100201.06
2023-05-01T15:31:19.524Z,100203.81
2023-05-01T15:33:46.650Z,100202.53
2023-05-01T15:36:13.286Z,100202.22
2023-05-01T15:38:39.763Z,100198.16
2023-05-01T15:41:06.234Z,100205.16
2023-05-01T15:43:32.728Z,100201.56
2023-05-01T15:45:59.749Z,100211.13
2023-05-01T15:48:26.753Z,100215.03
2023-05-01T15:50:53.193Z,100215.84
2023-05-01T15:53:21.057Z,100215.84
2023-05-01T15:55:47.526Z,100226.56
2023-05-01T15:58:14.460Z,100226.56
2023-05-01T16:00:40.904Z,100225.91
2023-05-01T16:03:07.636Z,100230.81
2023-05-01T16:05:34.325Z,100226.94
2023-05-01T16:08:00.878Z,100225.94
2023-05-01T16:10:27.684Z,100235.84
2023-05-01T16:12:54.566Z,100231.97
2023-05-01T16:15:22.674Z,100232.28
2023-05-01T16:17:51.474Z,100238.97
2023-05-01T16:20:18.056Z,100246.09
2023-05-01T16:22:44.504Z,100243.34
2023-05-01T16:25:11.153Z,100243.34
2023-05-01T16:27:41.466Z,100244.50
2023-05-01T16:30:08.983Z,100246.56
2023-05-01T16:32:35.796Z,100248.03
2023-05-01T16:35:03.557Z,100239.94
2023-05-01T16:37:30.037Z,100246.09
2023-05-01T16:39:57.943Z,100239.00
2023-05-01T16:42:24.793Z,100237.34
2023-05-01T16:44:51.249Z,100240.44
2023-05-01T16:47:18.246Z,100240.75
2023-05-01T16:49:46.581Z,100243.50
2023-05-01T16:52:15.607Z,100245.13
2023-05-01T16:54:42.160Z,100241.41
2023-05-01T16:57:08.693Z,100252.91
2023-05-01T16:59:35.206Z,100251.97
2023-05-01T17:02:01.760Z,100240.94
2023-05-01T17:04:28.343Z,100248.22
2023-05-01T17:06:56.203Z,100253.88
2023-05-01T17:09:22.906Z,100252.41
2023-05-01T17:11:56.833Z,100262.31
2023-05-01T17:14:23.588Z,100274.44
2023-05-01T17:16:50.534Z,100273.97
2023-05-01T17:19:17.167Z,100276.03
2023-05-01T17:21:43.629Z,100278.00
2023-05-01T17:24:10.211Z,100282.53
2023-05-01T17:26:36.718Z,100282.03
2023-05-01T17:29:03.606Z,100283.66
2023-05-01T17:31:30.271Z,100287.88
2023-05-01T17:33:56.800Z,100288.19
2023-05-01T17:36:23.864Z,100294.00
2023-05-01T17:38:50.392Z,100286.91
2023-05-01T17:41:16.921Z,100297.91
2023-05-01T17:43:44.834Z,100298.06
2023-05-01T17:46:11.646Z,100297.94
2023-05-01T17:48:38.093Z,100303.13
2023-05-01T17:51:04.611Z,100301.31
2023-05-01T17:53:31.339Z,100312.16
2023-05-01T17:55:58.329Z,100309.41
2023-05-01T17:58:24.883Z,100318.78
2023-05-01T18:00:51.782Z,100323.19
2023-05-01T18:03:18.379Z,100312.81
2023-05-01T18:05:44.990Z,100325.28
2023-05-01T18:08:11.648Z,100330.94
2023-05-01T18:10:38.320Z,100335.47
2023-05-01T18:13:04.942Z,100344.38
2023-05-01T18:15:31.684Z,100335.63
2023-05-01T18:17:58.853Z,100344.19
2023-05-01T18:20:29.401Z,100349.69
2023-05-01T18:22:56.085Z,100349.69
2023-05-01T18:25:22.830Z,100338.03
2023-05-01T18:27:49.308Z,100341.81
2023-05-01T18:30:15.899Z,100339.69
2023-05-01T18:32:48.228Z,100344.38
2023-05-01T18:35:19.238Z,100341.94
2023-05-01T18:37:46.580Z,100340.81
2023-05-01T18:40:13.186Z,100341.97
2023-05-01T18:42:40.675Z,100346.53
2023-05-01T18:45:07.769Z,100341.19
2023-05-01T18:47:35.505Z,100343.44
2023-05-01T18:50:02.429Z,100344.75
2023-05-01T18:52:29.269Z,100354.94
2023-05-01T18:54:55.745Z,100362.88
2023-05-01T18:57:22.716Z,100368.69
2023-05-01T18:59:49.246Z,100373.09
2023-05-01T19:02:15.775Z,100375.00
2023-05-01T19:04:56.115Z,100384.59
2023-05-01T19:07:25.379Z,100390.09
2023-05-01T19:09:51.896Z,100389.78
2023-05-01T19:12:18.490Z,100400.47
2023-05-01T19:14:45.090Z,100405.66
2023-05-01T19:17:11.673Z,100400.78
2023-05-01T19:19:38.123Z,100410.50
2023-05-01T19:22:04.664Z,100412.44
2023-05-01T19:24:31.135Z,100421.53
2023-05-01T19:26:57.685Z,100424.78
2023-05-01T19:29:26.400Z,100422.81
2023-05-01T19:31:55.037Z,100425.59
2023-05-01T19:34:22.033Z,100429.13
2023-05-01T19:36:49.529Z,100432.38
2023-05-01T19:39:16.744Z,100428.00
2023-05-01T19:41:43.408Z,100435.97
2023-05-01T19:44:09.980Z,100438.72
2023-05-01T19:46:37.576Z,100447.63
2023-05-01T19:49:04.391Z,100440.47
2023-05-01T19:51:31.657Z,100448.09
2023-05-01T19:53:58.362Z,100440.63
2023-05-01T19:56:25.382Z,100452.31
2023-05-01T19:58:57.648Z,100448.56
2023-05-01T20:01:24.538Z,100460.75
2023-05-01T20:03:51.156Z,100461.22
2023-05-01T20:06:17.816Z,100456.69
2023-05-01T20:08:44.568Z,100469.34
2023-05-01T20:11:11.553Z,100479.84
2023-05-01T20:13:38.280Z,100478.06
2023-05-01T20:16:05.056Z,100490.06
2023-05-01T20:18:33.175Z,100488.63
2023-05-01T20:20:59.730Z,100489.72
2023-05-01T20:23:26.847Z,100491.38
2023-05-01T20:25:56.849Z,100489.25
2023-05-01T20:28:23.502Z,100498.63
2023-05-01T20:30:50.178Z,100501.41
2023-05-01T20:33:17.722Z,100495.56
2023-05-01T20:35:45.238Z,100495.72
2023-05-01T20:38:11.701Z,100496.88
2023-05-01T20:40:42.221Z,100487.81
2023-05-01T20:43:08.811Z,100504.34
2023-05-01T20:45:35.380Z,100496.56
2023-05-01T20:48:05.390Z,100502.06
2023-05-01T20:50:32.105Z,100502.72
2023-05-01T20:52:58.635Z,100504.00
2023-05-01T20:55:25.234Z,100505.63
2023-05-01T20:57:51.745Z,100501.75
2023-05-01T21:00:18.281Z,100503.97
2023-05-01T21:02:44.990Z,100510.44
2023-05-01T21:05:13.167Z,100512.72
2023-05-01T21:07:39.836Z,100512.06
2023-05-01T21:10:07.004Z,100513.72
2023-05-01T21:12:33.470Z,100511.28
2023-05-01T21:14:59.973Z,100512.72
2023-05-01T21:17:26.874Z,100522.59
2023-05-01T21:19:54.752Z,100523.41
2023-05-01T21:22:22.071Z,100529.41
2023-05-01T21:24:51.829Z,100527.13
2023-05-01T21:27:18.351Z,100521.47
2023-05-01T21:29:44.849Z,100523.09
2023-05-01T21:32:11.260Z,100530.25
2023-05-01T21:34:37.747Z,100526.19
2023-05-01T21:37:04.178Z,100530.88
2023-05-01T21:39:33.847Z,100532.00
2023-05-01T21:42:01.569Z,100536.88
2023-05-01T21:44:28.645Z,100529.88
2023-05-01T21:46:55.282Z,100531.53
2023-05-01T21:49:23.136Z,100529.41
2023-05-01T21:51:49.639Z,100540.09
2023-05-01T21:54:21.524Z,100542.84
2023-05-01T21:56:48.218Z,100541.66
2023-05-01T21:59:14.674Z,100542.19
2023-05-01T22:01:41.365Z,100546.19
2023-05-01T22:04:08.362Z,100547.66
2023-05-01T22:06:34.969Z,100551.06
2023-05-01T22:09:01.552Z,100545.09
2023-05-01T22:11:28.031Z,100551.53
2023-05-01T22:13:54.420Z,100554.44
2023-05-01T22:16:20.969Z,100555.84
2023-05-01T22:18:49.783Z,100561.41
2023-05-01T22:21:16.686Z,100565.28
2023-05-01T22:23:43.205Z,100566.94
2023-05-01T22:26:09.893Z,100566.31
2023-05-01T22:28:36.398Z,100564.88
2023-05-01T22:31:03.243Z,100563.69
2023-05-01T22:33:29.741Z,100568.88
2023-05-01T22:35:56.266Z,100564.00
2023-05-01T22:38:22.750Z,100574.16
2023-05-01T22:40:49.183Z,100583.03
2023-05-01T22:43:16.157Z,100578.84
2023-05-01T22:45:42.889Z,100574.53
2023-05-01T22:48:09.489Z,100572.44
2023-05-01T22:50:36.033Z,100573.53
2023-05-01T22:53:02.530Z,100579.22
2023-05-01T22:55:29.069Z,100585.16
2023-05-01T22:57:55.531Z,100577.78
2023-05-01T23:00:23.591Z,100579.91
2023-05-01T23:02:50.755Z,100586.84
2023-05-01T23:05:17.679Z,100582.47
2023-05-01T23:07:44.242Z,100581.84
2023-05-01T23:10:10.855Z,100584.56
2023-05-01T23:12:39.929Z,100578.41
2023-05-01T23:15:08.760Z,100594.13
2023-05-01T23:17:35.991Z,100591.28
2023-05-01T23:20:02.650Z,100596.00
2023-05-01T23:22:29.624Z,100587.81
2023-05-01T23:24:56.174Z,100593.84
2023-05-01T23:27:22.756Z,100590.47
2023-05-01T23:29:54.065Z,100591.28
2023-05-01T23:32:23.408Z,100588.06
2023-05-01T23:34:49.966Z,100589.44
2023-05-01T23:37:16.368Z,100589.78
2023-05-01T23:39:42.816Z,100588.09
2023-05-01T23:42:09.255Z,100587.28
2023-05-01T23:44:35.696Z,100588.25
2023-05-01T23:47:02.179Z,100593.59
2023-05-01T23:49:28.612Z,100584.94
2023-05-01T23:51:55.020Z,100592.88
2023-05-01T23:54:21.450Z,100585.69
2023-05-01T23:56:47.859Z,100601.59
2023-05-01T23:59:14.983Z,100594.59
